sensor_id;sensor_type;location;lat;lon;timestamp;P1;durP1;ratioP1;P2;durP2;ratioP2
57800;SDS011;43627;42.728;23.256;2023-04-15T00:01:18;5.88;;;2.17;;
57800;SDS011;43627;42.728;23.256;2023-04-15T00:03:45;6.88;;;2.65;;
57800;SDS011;43627;42.728;23.256;2023-04-15T00:06:13;5.43;;;2.80;;
57800;SDS011;43627;42.728;23.256;2023-04-15T00:08:40;10.27;;;3.03;;
57800;SDS011;43627;42.728;23.256;2023-04-15T00:11:07;6.25;;;2.63;;
57800;SDS011;43627;42.728;23.256;2023-04-15T00:13:33;4.97;;;2.80;;
57800;SDS011;43627;42.728;23.256;2023-04-15T00:16:00;5.03;;;2.10;;
57800;SDS011;43627;42.728;23.256;2023-04-15T00:18:27;7.75;;;2.20;;
57800;SDS011;43627;42.728;23.256;2023-04-15T00:20:55;5.47;;;2.35;;
57800;SDS011;43627;42.728;23.256;2023-04-15T00:23:22;6.68;;;2.47;;
57800;SDS011;43627;42.728;23.256;2023-04-15T00:25:48;7.88;;;3.05;;
57800;SDS011;43627;42.728;23.256;2023-04-15T00:28:16;5.22;;;2.15;;
57800;SDS011;43627;42.728;23.256;2023-04-15T00:30:43;4.20;;;1.92;;
57800;SDS011;43627;42.728;23.256;2023-04-15T00:33:10;4.13;;;1.75;;
57800;SDS011;43627;42.728;23.256;2023-04-15T00:35:38;4.95;;;1.90;;
57800;SDS011;43627;42.728;23.256;2023-04-15T00:38:05;4.68;;;2.20;;
57800;SDS011;43627;42.728;23.256;2023-04-15T00:40:33;5.00;;;1.95;;
57800;SDS011;43627;42.728;23.256;2023-04-15T00:43:00;9.75;;;3.50;;
57800;SDS011;43627;42.728;23.256;2023-04-15T00:45:27;7.38;;;3.80;;
57800;SDS011;43627;42.728;23.256;2023-04-15T00:47:54;9.90;;;3.53;;
57800;SDS011;43627;42.728;23.256;2023-04-15T00:50:22;12.50;;;4.20;;
57800;SDS011;43627;42.728;23.256;2023-04-15T00:52:48;9.82;;;3.83;;
57800;SDS011;43627;42.728;23.256;2023-04-15T00:55:15;8.50;;;4.13;;
57800;SDS011;43627;42.728;23.256;2023-04-15T00:57:42;7.30;;;3.20;;
57800;SDS011;43627;42.728;23.256;2023-04-15T01:00:10;7.65;;;3.53;;
57800;SDS011;43627;42.728;23.256;2023-04-15T01:02:37;7.45;;;3.47;;
57800;SDS011;43627;42.728;23.256;2023-04-15T01:05:04;6.57;;;2.60;;
57800;SDS011;43627;42.728;23.256;2023-04-15T01:07:31;8.43;;;3.30;;
57800;SDS011;43627;42.728;23.256;2023-04-15T01:09:58;9.07;;;3.38;;
57800;SDS011;43627;42.728;23.256;2023-04-15T01:12:25;14.23;;;4.70;;
57800;SDS011;43627;42.728;23.256;2023-04-15T01:14:54;13.55;;;4.85;;
57800;SDS011;43627;42.728;23.256;2023-04-15T01:17:21;7.50;;;3.60;;
57800;SDS011;43627;42.728;23.256;2023-04-15T01:19:50;9.95;;;4.53;;
57800;SDS011;43627;42.728;23.256;2023-04-15T01:22:17;13.07;;;4.80;;
57800;SDS011;43627;42.728;23.256;2023-04-15T01:24:50;13.45;;;5.07;;
57800;SDS011;43627;42.728;23.256;2023-04-15T01:27:24;15.30;;;5.22;;
57800;SDS011;43627;42.728;23.256;2023-04-15T01:29:51;10.60;;;4.43;;
57800;SDS011;43627;42.728;23.256;2023-04-15T01:32:18;8.32;;;4.32;;
57800;SDS011;43627;42.728;23.256;2023-04-15T01:34:45;11.98;;;4.93;;
57800;SDS011;43627;42.728;23.256;2023-04-15T01:37:11;9.05;;;4.30;;
57800;SDS011;43627;42.728;23.256;2023-04-15T01:39:38;11.18;;;5.05;;
57800;SDS011;43627;42.728;23.256;2023-04-15T01:42:05;12.07;;;4.50;;
57800;SDS011;43627;42.728;23.256;2023-04-15T01:44:32;11.27;;;5.25;;
57800;SDS011;43627;42.728;23.256;2023-04-15T01:46:59;9.55;;;4.72;;
57800;SDS011;43627;42.728;23.256;2023-04-15T01:49:26;9.65;;;4.25;;
57800;SDS011;43627;42.728;23.256;2023-04-15T01:51:52;12.93;;;5.32;;
57800;SDS011;43627;42.728;23.256;2023-04-15T01:54:20;12.57;;;4.60;;
57800;SDS011;43627;42.728;23.256;2023-04-15T01:56:46;9.13;;;4.60;;
57800;SDS011;43627;42.728;23.256;2023-04-15T01:59:13;11.77;;;5.50;;
57800;SDS011;43627;42.728;23.256;2023-04-15T02:01:40;9.68;;;4.90;;
57800;SDS011;43627;42.728;23.256;2023-04-15T02:04:07;11.85;;;4.65;;
57800;SDS011;43627;42.728;23.256;2023-04-15T02:06:42;9.80;;;4.80;;
57800;SDS011;43627;42.728;23.256;2023-04-15T02:09:09;11.68;;;5.13;;
57800;SDS011;43627;42.728;23.256;2023-04-15T02:11:35;10.07;;;4.55;;
57800;SDS011;43627;42.728;23.256;2023-04-15T02:14:03;15.85;;;6.93;;
57800;SDS011;43627;42.728;23.256;2023-04-15T02:16:31;14.95;;;6.18;;
57800;SDS011;43627;42.728;23.256;2023-04-15T02:18:59;10.85;;;5.38;;
57800;SDS011;43627;42.728;23.256;2023-04-15T02:21:26;11.65;;;5.72;;
57800;SDS011;43627;42.728;23.256;2023-04-15T02:23:53;13.15;;;5.65;;
57800;SDS011;43627;42.728;23.256;2023-04-15T02:26:20;16.52;;;5.53;;
57800;SDS011;43627;42.728;23.256;2023-04-15T02:28:48;15.70;;;5.22;;
57800;SDS011;43627;42.728;23.256;2023-04-15T02:31:16;9.15;;;4.60;;
57800;SDS011;43627;42.728;23.256;2023-04-15T02:33:43;11.63;;;5.15;;
57800;SDS011;43627;42.728;23.256;2023-04-15T02:36:10;13.73;;;4.93;;
57800;SDS011;43627;42.728;23.256;2023-04-15T02:38:37;8.20;;;3.28;;
57800;SDS011;43627;42.728;23.256;2023-04-15T02:41:07;7.53;;;3.70;;
57800;SDS011;43627;42.728;23.256;2023-04-15T02:43:35;7.93;;;3.58;;
57800;SDS011;43627;42.728;23.256;2023-04-15T02:46:02;6.90;;;3.63;;
57800;SDS011;43627;42.728;23.256;2023-04-15T02:48:29;10.35;;;3.85;;
57800;SDS011;43627;42.728;23.256;2023-04-15T02:51:15;9.32;;;3.55;;
57800;SDS011;43627;42.728;23.256;2023-04-15T02:53:45;9.32;;;3.83;;
57800;SDS011;43627;42.728;23.256;2023-04-15T02:56:13;8.57;;;4.15;;
57800;SDS011;43627;42.728;23.256;2023-04-15T02:58:42;8.52;;;4.28;;
57800;SDS011;43627;42.728;23.256;2023-04-15T03:01:10;13.73;;;3.42;;
57800;SDS011;43627;42.728;23.256;2023-04-15T03:03:37;9.05;;;3.92;;
57800;SDS011;43627;42.728;23.256;2023-04-15T03:06:04;8.38;;;3.78;;
57800;SDS011;43627;42.728;23.256;2023-04-15T03:08:31;13.32;;;4.43;;
57800;SDS011;43627;42.728;23.256;2023-04-15T03:10:57;7.53;;;3.65;;
57800;SDS011;43627;42.728;23.256;2023-04-15T03:13:26;7.50;;;3.28;;
57800;SDS011;43627;42.728;23.256;2023-04-15T03:15:52;8.05;;;4.10;;
57800;SDS011;43627;42.728;23.256;2023-04-15T03:18:19;6.45;;;3.65;;
57800;SDS011;43627;42.728;23.256;2023-04-15T03:20:46;7.70;;;4.07;;
57800;SDS011;43627;42.728;23.256;2023-04-15T03:23:13;8.98;;;4.30;;
57800;SDS011;43627;42.728;23.256;2023-04-15T03:25:40;8.10;;;4.03;;
57800;SDS011;43627;42.728;23.256;2023-04-15T03:28:07;7.88;;;3.90;;
57800;SDS011;43627;42.728;23.256;2023-04-15T03:30:33;12.15;;;5.05;;
57800;SDS011;43627;42.728;23.256;2023-04-15T03:33:00;13.57;;;5.18;;
57800;SDS011;43627;42.728;23.256;2023-04-15T03:35:27;9.00;;;3.78;;
57800;SDS011;43627;42.728;23.256;2023-04-15T03:37:54;8.05;;;3.75;;
57800;SDS011;43627;42.728;23.256;2023-04-15T03:40:20;9.68;;;4.97;;
57800;SDS011;43627;42.728;23.256;2023-04-15T03:42:47;10.13;;;4.57;;
57800;SDS011;43627;42.728;23.256;2023-04-15T03:45:14;7.88;;;4.50;;
57800;SDS011;43627;42.728;23.256;2023-04-15T03:47:41;6.85;;;4.00;;
57800;SDS011;43627;42.728;23.256;2023-04-15T03:50:07;10.77;;;5.85;;
57800;SDS011;43627;42.728;23.256;2023-04-15T03:52:34;10.63;;;5.90;;
57800;SDS011;43627;42.728;23.256;2023-04-15T03:55:01;8.43;;;4.53;;
57800;SDS011;43627;42.728;23.256;2023-04-15T03:57:28;13.30;;;5.07;;
57800;SDS011;43627;42.728;23.256;2023-04-15T03:59:54;10.73;;;5.13;;
57800;SDS011;43627;42.728;23.256;2023-04-15T04:02:21;11.50;;;5.38;;
57800;SDS011;43627;42.728;23.256;2023-04-15T04:04:48;12.75;;;5.07;;
57800;SDS011;43627;42.728;23.256;2023-04-15T04:07:16;9.70;;;4.78;;
57800;SDS011;43627;42.728;23.256;2023-04-15T04:09:43;12.85;;;5.85;;
57800;SDS011;43627;42.728;23.256;2023-04-15T04:12:12;11.07;;;5.10;;
57800;SDS011;43627;42.728;23.256;2023-04-15T04:14:39;10.48;;;4.45;;
57800;SDS011;43627;42.728;23.256;2023-04-15T04:17:06;7.90;;;4.45;;
57800;SDS011;43627;42.728;23.256;2023-04-15T04:19:33;7.72;;;4.63;;
57800;SDS011;43627;42.728;23.256;2023-04-15T04:21:59;12.65;;;5.75;;
57800;SDS011;43627;42.728;23.256;2023-04-15T04:24:26;9.30;;;3.97;;
57800;SDS011;43627;42.728;23.256;2023-04-15T04:26:53;8.23;;;3.97;;
57800;SDS011;43627;42.728;23.256;2023-04-15T04:29:19;9.02;;;4.15;;
57800;SDS011;43627;42.728;23.256;2023-04-15T04:31:46;11.40;;;4.55;;
57800;SDS011;43627;42.728;23.256;2023-04-15T04:34:14;9.25;;;3.70;;
57800;SDS011;43627;42.728;23.256;2023-04-15T04:36:41;9.50;;;3.75;;
57800;SDS011;43627;42.728;23.256;2023-04-15T04:39:08;7.07;;;3.30;;
57800;SDS011;43627;42.728;23.256;2023-04-15T04:41:34;7.47;;;3.80;;
57800;SDS011;43627;42.728;23.256;2023-04-15T04:44:01;6.68;;;3.70;;
57800;SDS011;43627;42.728;23.256;2023-04-15T04:46:28;5.80;;;3.70;;
57800;SDS011;43627;42.728;23.256;2023-04-15T04:48:55;9.82;;;3.58;;
57800;SDS011;43627;42.728;23.256;2023-04-15T04:51:22;6.38;;;3.30;;
57800;SDS011;43627;42.728;23.256;2023-04-15T04:53:50;8.95;;;3.88;;
57800;SDS011;43627;42.728;23.256;2023-04-15T04:56:16;6.70;;;2.90;;
57800;SDS011;43627;42.728;23.256;2023-04-15T04:58:43;7.85;;;2.63;;
57800;SDS011;43627;42.728;23.256;2023-04-15T05:01:10;5.63;;;3.38;;
57800;SDS011;43627;42.728;23.256;2023-04-15T05:03:36;6.43;;;2.92;;
57800;SDS011;43627;42.728;23.256;2023-04-15T05:06:03;5.15;;;2.80;;
57800;SDS011;43627;42.728;23.256;2023-04-15T05:08:32;5.63;;;2.95;;
57800;SDS011;43627;42.728;23.256;2023-04-15T05:10:59;5.82;;;2.72;;
57800;SDS011;43627;42.728;23.256;2023-04-15T05:13:25;4.85;;;2.10;;
57800;SDS011;43627;42.728;23.256;2023-04-15T05:15:52;3.10;;;2.20;;
57800;SDS011;43627;42.728;23.256;2023-04-15T05:18:19;5.90;;;2.90;;
57800;SDS011;43627;42.728;23.256;2023-04-15T05:20:45;6.07;;;2.90;;
57800;SDS011;43627;42.728;23.256;2023-04-15T05:23:12;3.65;;;2.25;;
57800;SDS011;43627;42.728;23.256;2023-04-15T05:25:39;4.40;;;2.70;;
57800;SDS011;43627;42.728;23.256;2023-04-15T05:28:05;7.20;;;2.63;;
57800;SDS011;43627;42.728;23.256;2023-04-15T05:30:32;6.45;;;3.10;;
57800;SDS011;43627;42.728;23.256;2023-04-15T05:32:59;6.68;;;2.70;;
57800;SDS011;43627;42.728;23.256;2023-04-15T05:35:26;6.10;;;2.53;;
57800;SDS011;43627;42.728;23.256;2023-04-15T05:37:53;4.85;;;2.72;;
57800;SDS011;43627;42.728;23.256;2023-04-15T05:40:19;5.85;;;2.88;;
57800;SDS011;43627;42.728;23.256;2023-04-15T05:42:46;5.53;;;2.55;;
57800;SDS011;43627;42.728;23.256;2023-04-15T05:45:13;4.97;;;2.30;;
57800;SDS011;43627;42.728;23.256;2023-04-15T05:47:39;7.25;;;2.78;;
57800;SDS011;43627;42.728;23.256;2023-04-15T05:50:06;4.85;;;2.60;;
57800;SDS011;43627;42.728;23.256;2023-04-15T05:52:33;6.90;;;2.33;;
57800;SDS011;43627;42.728;23.256;2023-04-15T05:55:00;4.00;;;2.40;;
57800;SDS011;43627;42.728;23.256;2023-04-15T05:57:27;5.63;;;2.47;;
57800;SDS011;43627;42.728;23.256;2023-04-15T05:59:53;4.50;;;2.38;;
57800;SDS011;43627;42.728;23.256;2023-04-15T06:02:22;4.95;;;2.58;;
57800;SDS011;43627;42.728;23.256;2023-04-15T06:04:49;4.43;;;1.90;;
57800;SDS011;43627;42.728;23.256;2023-04-15T06:07:15;5.28;;;2.08;;
57800;SDS011;43627;42.728;23.256;2023-04-15T06:09:42;11.43;;;2.88;;
57800;SDS011;43627;42.728;23.256;2023-04-15T06:12:10;5.47;;;2.40;;
57800;SDS011;43627;42.728;23.256;2023-04-15T06:14:38;5.97;;;2.38;;
57800;SDS011;43627;42.728;23.256;2023-04-15T06:17:05;4.80;;;1.75;;
57800;SDS011;43627;42.728;23.256;2023-04-15T06:19:32;4.22;;;1.80;;
57800;SDS011;43627;42.728;23.256;2023-04-15T06:22:00;2.90;;;1.40;;
57800;SDS011;43627;42.728;23.256;2023-04-15T06:24:27;3.03;;;1.25;;
57800;SDS011;43627;42.728;23.256;2023-04-15T06:26:54;6.45;;;1.55;;
57800;SDS011;43627;42.728;23.256;2023-04-15T06:29:21;4.65;;;1.63;;
57800;SDS011;43627;42.728;23.256;2023-04-15T06:31:47;4.55;;;1.83;;
57800;SDS011;43627;42.728;23.256;2023-04-15T06:34:15;9.10;;;2.75;;
57800;SDS011;43627;42.728;23.256;2023-04-15T06:36:42;5.05;;;2.50;;
57800;SDS011;43627;42.728;23.256;2023-04-15T06:39:08;4.40;;;2.28;;
57800;SDS011;43627;42.728;23.256;2023-04-15T06:41:35;2.50;;;1.42;;
57800;SDS011;43627;42.728;23.256;2023-04-15T06:44:02;5.28;;;2.30;;
57800;SDS011;43627;42.728;23.256;2023-04-15T06:46:29;3.67;;;1.98;;
57800;SDS011;43627;42.728;23.256;2023-04-15T06:48:55;3.38;;;2.00;;
57800;SDS011;43627;42.728;23.256;2023-04-15T06:51:22;7.63;;;2.40;;
57800;SDS011;43627;42.728;23.256;2023-04-15T06:53:51;4.43;;;2.50;;
57800;SDS011;43627;42.728;23.256;2023-04-15T06:56:18;7.40;;;2.88;;
57800;SDS011;43627;42.728;23.256;2023-04-15T06:58:45;3.88;;;2.30;;
57800;SDS011;43627;42.728;23.256;2023-04-15T07:01:12;4.95;;;2.40;;
57800;SDS011;43627;42.728;23.256;2023-04-15T07:03:39;3.50;;;2.22;;
57800;SDS011;43627;42.728;23.256;2023-04-15T07:06:07;6.07;;;2.72;;
57800;SDS011;43627;42.728;23.256;2023-04-15T07:08:35;7.32;;;2.65;;
57800;SDS011;43627;42.728;23.256;2023-04-15T07:11:01;3.88;;;1.88;;
57800;SDS011;43627;42.728;23.256;2023-04-15T07:13:29;9.13;;;3.13;;
57800;SDS011;43627;42.728;23.256;2023-04-15T07:15:57;4.18;;;1.75;;
57800;SDS011;43627;42.728;23.256;2023-04-15T07:18:24;3.83;;;1.80;;
57800;SDS011;43627;42.728;23.256;2023-04-15T07:20:50;4.28;;;2.38;;
57800;SDS011;43627;42.728;23.256;2023-04-15T07:23:17;7.13;;;2.00;;
57800;SDS011;43627;42.728;23.256;2023-04-15T07:25:44;3.22;;;1.33;;
57800;SDS011;43627;42.728;23.256;2023-04-15T07:28:11;3.47;;;1.67;;
57800;SDS011;43627;42.728;23.256;2023-04-15T07:30:37;5.00;;;1.65;;
57800;SDS011;43627;42.728;23.256;2023-04-15T07:33:04;3.17;;;1.00;;
57800;SDS011;43627;42.728;23.256;2023-04-15T07:35:31;3.40;;;1.30;;
57800;SDS011;43627;42.728;23.256;2023-04-15T07:37:58;4.60;;;1.40;;
57800;SDS011;43627;42.728;23.256;2023-04-15T07:40:25;9.30;;;1.52;;
57800;SDS011;43627;42.728;23.256;2023-04-15T07:42:51;1.90;;;1.00;;
57800;SDS011;43627;42.728;23.256;2023-04-15T07:45:18;4.30;;;1.58;;
57800;SDS011;43627;42.728;23.256;2023-04-15T07:47:45;5.38;;;1.05;;
57800;SDS011;43627;42.728;23.256;2023-04-15T07:50:12;5.93;;;1.25;;
57800;SDS011;43627;42.728;23.256;2023-04-15T07:52:38;4.97;;;1.40;;
57800;SDS011;43627;42.728;23.256;2023-04-15T07:55:05;8.77;;;2.15;;
57800;SDS011;43627;42.728;23.256;2023-04-15T07:57:36;4.68;;;1.15;;
57800;SDS011;43627;42.728;23.256;2023-04-15T08:00:03;5.90;;;1.38;;
57800;SDS011;43627;42.728;23.256;2023-04-15T08:02:30;3.00;;;1.10;;
57800;SDS011;43627;42.728;23.256;2023-04-15T08:04:58;1.38;;;1.00;;
57800;SDS011;43627;42.728;23.256;2023-04-15T08:07:25;2.92;;;1.10;;
57800;SDS011;43627;42.728;23.256;2023-04-15T08:09:52;2.05;;;1.02;;
57800;SDS011;43627;42.728;23.256;2023-04-15T08:12:19;1.95;;;0.77;;
57800;SDS011;43627;42.728;23.256;2023-04-15T08:14:45;2.85;;;0.52;;
57800;SDS011;43627;42.728;23.256;2023-04-15T08:17:12;1.50;;;0.50;;
57800;SDS011;43627;42.728;23.256;2023-04-15T08:19:39;1.17;;;0.22;;
57800;SDS011;43627;42.728;23.256;2023-04-15T08:22:06;1.88;;;0.50;;
57800;SDS011;43627;42.728;23.256;2023-04-15T08:24:43;1.55;;;0.30;;
57800;SDS011;43627;42.728;23.256;2023-04-15T08:27:09;0.50;;;0.45;;
57800;SDS011;43627;42.728;23.256;2023-04-15T08:29:36;0.40;;;0.30;;
57800;SDS011;43627;42.728;23.256;2023-04-15T08:32:03;4.30;;;0.47;;
57800;SDS011;43627;42.728;23.256;2023-04-15T08:34:30;3.42;;;0.80;;
57800;SDS011;43627;42.728;23.256;2023-04-15T08:36:57;4.18;;;0.73;;
57800;SDS011;43627;42.728;23.256;2023-04-15T08:39:23;2.13;;;0.40;;
57800;SDS011;43627;42.728;23.256;2023-04-15T08:41:51;1.58;;;0.60;;
57800;SDS011;43627;42.728;23.256;2023-04-15T08:44:31;1.85;;;0.88;;
57800;SDS011;43627;42.728;23.256;2023-04-15T08:47:00;1.08;;;0.63;;
57800;SDS011;43627;42.728;23.256;2023-04-15T08:49:28;2.85;;;0.70;;
57800;SDS011;43627;42.728;23.256;2023-04-15T08:51:56;4.50;;;0.63;;
57800;SDS011;43627;42.728;23.256;2023-04-15T08:54:25;0.85;;;0.40;;
57800;SDS011;43627;42.728;23.256;2023-04-15T08:56:53;2.55;;;0.40;;
57800;SDS011;43627;42.728;23.256;2023-04-15T08:59:20;0.73;;;0.50;;
57800;SDS011;43627;42.728;23.256;2023-04-15T09:01:48;1.40;;;0.30;;
57800;SDS011;43627;42.728;23.256;2023-04-15T09:04:16;2.33;;;0.40;;
57800;SDS011;43627;42.728;23.256;2023-04-15T09:06:43;2.47;;;0.40;;
57800;SDS011;43627;42.728;23.256;2023-04-15T09:09:11;1.63;;;0.40;;
57800;SDS011;43627;42.728;23.256;2023-04-15T09:11:39;1.38;;;0.40;;
57800;SDS011;43627;42.728;23.256;2023-04-15T09:14:07;1.90;;;0.30;;
57800;SDS011;43627;42.728;23.256;2023-04-15T09:16:55;0.30;;;0.30;;
57800;SDS011;43627;42.728;23.256;2023-04-15T09:19:22;1.65;;;0.40;;
57800;SDS011;43627;42.728;23.256;2023-04-15T09:21:50;3.33;;;0.60;;
57800;SDS011;43627;42.728;23.256;2023-04-15T09:24:22;0.20;;;0.20;;
57800;SDS011;43627;42.728;23.256;2023-04-15T09:26:53;2.13;;;0.52;;
57800;SDS011;43627;42.728;23.256;2023-04-15T09:29:23;2.30;;;0.30;;
57800;SDS011;43627;42.728;23.256;2023-04-15T09:31:51;0.75;;;0.30;;
57800;SDS011;43627;42.728;23.256;2023-04-15T09:34:18;1.75;;;0.55;;
57800;SDS011;43627;42.728;23.256;2023-04-15T09:39:13;2.58;;;0.40;;
57800;SDS011;43627;42.728;23.256;2023-04-15T09:41:40;1.00;;;0.38;;
57800;SDS011;43627;42.728;23.256;2023-04-15T09:44:24;0.98;;;0.60;;
57800;SDS011;43627;42.728;23.256;2023-04-15T09:46:52;1.40;;;0.30;;
57800;SDS011;43627;42.728;23.256;2023-04-15T09:49:19;1.85;;;0.77;;
57800;SDS011;43627;42.728;23.256;2023-04-15T09:51:46;1.40;;;0.30;;
57800;SDS011;43627;42.728;23.256;2023-04-15T09:54:33;0.38;;;0.30;;
57800;SDS011;43627;42.728;23.256;2023-04-15T09:57:05;0.90;;;0.40;;
57800;SDS011;43627;42.728;23.256;2023-04-15T09:59:33;1.75;;;0.50;;
57800;SDS011;43627;42.728;23.256;2023-04-15T10:02:00;0.50;;;0.20;;
57800;SDS011;43627;42.728;23.256;2023-04-15T10:04:29;0.85;;;0.20;;
57800;SDS011;43627;42.728;23.256;2023-04-15T10:07:01;0.40;;;0.10;;
57800;SDS011;43627;42.728;23.256;2023-04-15T10:09:30;1.33;;;0.38;;
57800;SDS011;43627;42.728;23.256;2023-04-15T10:11:58;0.30;;;0.20;;
57800;SDS011;43627;42.728;23.256;2023-04-15T10:14:26;1.98;;;0.43;;
57800;SDS011;43627;42.728;23.256;2023-04-15T10:16:55;0.80;;;0.30;;
57800;SDS011;43627;42.728;23.256;2023-04-15T10:19:26;1.80;;;0.40;;
57800;SDS011;43627;42.728;23.256;2023-04-15T10:21:57;1.35;;;0.40;;
57800;SDS011;43627;42.728;23.256;2023-04-15T10:24:27;0.60;;;0.30;;
57800;SDS011;43627;42.728;23.256;2023-04-15T10:26:57;1.42;;;0.40;;
57800;SDS011;43627;42.728;23.256;2023-04-15T10:29:25;1.88;;;0.35;;
57800;SDS011;43627;42.728;23.256;2023-04-15T10:31:53;0.95;;;0.32;;
57800;SDS011;43627;42.728;23.256;2023-04-15T10:34:24;1.35;;;0.35;;
57800;SDS011;43627;42.728;23.256;2023-04-15T10:36:55;1.85;;;0.30;;
57800;SDS011;43627;42.728;23.256;2023-04-15T10:42:06;1.52;;;0.65;;
57800;SDS011;43627;42.728;23.256;2023-04-15T10:44:36;0.30;;;0.20;;
57800;SDS011;43627;42.728;23.256;2023-04-15T10:47:14;0.77;;;0.22;;
57800;SDS011;43627;42.728;23.256;2023-04-15T10:49:51;1.05;;;0.52;;
57800;SDS011;43627;42.728;23.256;2023-04-15T10:52:23;2.88;;;0.30;;
57800;SDS011;43627;42.728;23.256;2023-04-15T10:57:53;0.75;;;0.43;;
57800;SDS011;43627;42.728;23.256;2023-04-15T11:00:24;0.82;;;0.28;;
57800;SDS011;43627;42.728;23.256;2023-04-15T11:02:53;1.63;;;0.50;;
57800;SDS011;43627;42.728;23.256;2023-04-15T11:05:21;2.08;;;0.70;;
57800;SDS011;43627;42.728;23.256;2023-04-15T11:08:08;2.13;;;0.52;;
57800;SDS011;43627;42.728;23.256;2023-04-15T11:13:03;2.17;;;0.50;;
57800;SDS011;43627;42.728;23.256;2023-04-15T11:20:35;2.38;;;0.60;;
57800;SDS011;43627;42.728;23.256;2023-04-15T11:23:04;2.03;;;0.50;;
57800;SDS011;43627;42.728;23.256;2023-04-15T11:25:40;1.73;;;0.57;;
57800;SDS011;43627;42.728;23.256;2023-04-15T11:28:07;0.50;;;0.40;;
57800;SDS011;43627;42.728;23.256;2023-04-15T11:30:35;1.73;;;0.70;;
57800;SDS011;43627;42.728;23.256;2023-04-15T11:33:04;2.40;;;0.50;;
57800;SDS011;43627;42.728;23.256;2023-04-15T11:35:34;2.45;;;1.08;;
57800;SDS011;43627;42.728;23.256;2023-04-15T11:38:04;1.55;;;0.70;;
57800;SDS011;43627;42.728;23.256;2023-04-15T11:40:33;1.85;;;0.50;;
57800;SDS011;43627;42.728;23.256;2023-04-15T11:48:25;1.40;;;0.43;;
57800;SDS011;43627;42.728;23.256;2023-04-15T11:50:57;0.80;;;0.50;;
57800;SDS011;43627;42.728;23.256;2023-04-15T11:53:35;0.68;;;0.50;;
57800;SDS011;43627;42.728;23.256;2023-04-15T11:56:21;3.33;;;0.80;;
57800;SDS011;43627;42.728;23.256;2023-04-15T11:58:52;1.77;;;0.60;;
57800;SDS011;43627;42.728;23.256;2023-04-15T12:01:35;0.95;;;0.40;;
57800;SDS011;43627;42.728;23.256;2023-04-15T12:04:16;0.80;;;0.30;;
57800;SDS011;43627;42.728;23.256;2023-04-15T12:06:51;1.17;;;0.47;;
57800;SDS011;43627;42.728;23.256;2023-04-15T12:09:17;1.85;;;0.57;;
57800;SDS011;43627;42.728;23.256;2023-04-15T12:11:49;1.15;;;0.63;;
57800;SDS011;43627;42.728;23.256;2023-04-15T12:14:27;0.57;;;0.30;;
57800;SDS011;43627;42.728;23.256;2023-04-15T12:16:59;1.33;;;0.40;;
57800;SDS011;43627;42.728;23.256;2023-04-15T12:19:40;1.27;;;0.50;;
57800;SDS011;43627;42.728;23.256;2023-04-15T12:22:08;1.52;;;0.22;;
57800;SDS011;43627;42.728;23.256;2023-04-15T12:24:37;1.08;;;0.45;;
57800;SDS011;43627;42.728;23.256;2023-04-15T12:27:08;2.53;;;0.60;;
57800;SDS011;43627;42.728;23.256;2023-04-15T12:29:38;0.80;;;0.30;;
57800;SDS011;43627;42.728;23.256;2023-04-15T12:32:09;3.33;;;0.43;;
57800;SDS011;43627;42.728;23.256;2023-04-15T12:37:06;1.08;;;0.30;;
57800;SDS011;43627;42.728;23.256;2023-04-15T12:39:36;1.70;;;0.60;;
57800;SDS011;43627;42.728;23.256;2023-04-15T12:42:14;1.23;;;0.40;;
57800;SDS011;43627;42.728;23.256;2023-04-15T12:44:41;0.70;;;0.22;;
57800;SDS011;43627;42.728;23.256;2023-04-15T12:47:08;1.17;;;0.43;;
57800;SDS011;43627;42.728;23.256;2023-04-15T12:49:36;1.75;;;0.40;;
57800;SDS011;43627;42.728;23.256;2023-04-15T12:52:03;2.15;;;0.60;;
57800;SDS011;43627;42.728;23.256;2023-04-15T12:54:30;1.48;;;0.50;;
57800;SDS011;43627;42.728;23.256;2023-04-15T12:56:57;1.33;;;0.50;;
57800;SDS011;43627;42.728;23.256;2023-04-15T12:59:24;0.30;;;0.30;;
57800;SDS011;43627;42.728;23.256;2023-04-15T13:01:52;1.10;;;0.30;;
57800;SDS011;43627;42.728;23.256;2023-04-15T13:04:20;0.77;;;0.25;;
57800;SDS011;43627;42.728;23.256;2023-04-15T13:06:47;1.30;;;0.45;;
57800;SDS011;43627;42.728;23.256;2023-04-15T13:09:14;0.82;;;0.35;;
57800;SDS011;43627;42.728;23.256;2023-04-15T13:11:41;0.65;;;0.40;;
57800;SDS011;43627;42.728;23.256;2023-04-15T13:14:08;0.43;;;0.22;;
57800;SDS011;43627;42.728;23.256;2023-04-15T13:16:38;1.80;;;0.60;;
57800;SDS011;43627;42.728;23.256;2023-04-15T13:19:06;1.65;;;0.43;;
57800;SDS011;43627;42.728;23.256;2023-04-15T13:21:32;3.60;;;0.40;;
57800;SDS011;43627;42.728;23.256;2023-04-15T13:24:02;1.20;;;0.45;;
57800;SDS011;43627;42.728;23.256;2023-04-15T13:26:30;1.42;;;0.35;;
57800;SDS011;43627;42.728;23.256;2023-04-15T13:28:57;0.73;;;0.40;;
57800;SDS011;43627;42.728;23.256;2023-04-15T13:31:25;0.73;;;0.38;;
57800;SDS011;43627;42.728;23.256;2023-04-15T13:33:55;1.17;;;0.40;;
57800;SDS011;43627;42.728;23.256;2023-04-15T13:36:23;1.17;;;0.52;;
57800;SDS011;43627;42.728;23.256;2023-04-15T13:38:50;2.45;;;0.40;;
57800;SDS011;43627;42.728;23.256;2023-04-15T13:41:17;1.58;;;0.40;;
57800;SDS011;43627;42.728;23.256;2023-04-15T13:43:45;0.60;;;0.28;;
57800;SDS011;43627;42.728;23.256;2023-04-15T13:46:12;1.10;;;0.40;;
57800;SDS011;43627;42.728;23.256;2023-04-15T13:48:39;0.43;;;0.20;;
57800;SDS011;43627;42.728;23.256;2023-04-15T13:51:06;0.50;;;0.32;;
57800;SDS011;43627;42.728;23.256;2023-04-15T13:53:32;3.50;;;0.52;;
57800;SDS011;43627;42.728;23.256;2023-04-15T13:56:05;1.73;;;0.55;;
57800;SDS011;43627;42.728;23.256;2023-04-15T13:58:32;1.27;;;0.40;;
57800;SDS011;43627;42.728;23.256;2023-04-15T14:00:59;0.43;;;0.30;;
57800;SDS011;43627;42.728;23.256;2023-04-15T14:03:29;1.45;;;0.40;;
57800;SDS011;43627;42.728;23.256;2023-04-15T14:05:56;2.60;;;0.55;;
57800;SDS011;43627;42.728;23.256;2023-04-15T14:08:23;0.82;;;0.30;;
57800;SDS011;43627;42.728;23.256;2023-04-15T14:10:51;1.00;;;0.35;;
57800;SDS011;43627;42.728;23.256;2023-04-15T14:13:18;1.27;;;0.30;;
57800;SDS011;43627;42.728;23.256;2023-04-15T14:15:46;3.20;;;0.30;;
57800;SDS011;43627;42.728;23.256;2023-04-15T14:18:13;0.90;;;0.32;;
57800;SDS011;43627;42.728;23.256;2023-04-15T14:20:40;1.02;;;0.47;;
57800;SDS011;43627;42.728;23.256;2023-04-15T14:23:07;1.60;;;0.40;;
57800;SDS011;43627;42.728;23.256;2023-04-15T14:25:34;1.35;;;0.28;;
57800;SDS011;43627;42.728;23.256;2023-04-15T14:28:01;1.45;;;0.30;;
57800;SDS011;43627;42.728;23.256;2023-04-15T14:30:28;0.35;;;0.15;;
57800;SDS011;43627;42.728;23.256;2023-04-15T14:32:55;2.25;;;0.40;;
57800;SDS011;43627;42.728;23.256;2023-04-15T14:35:22;1.02;;;0.60;;
57800;SDS011;43627;42.728;23.256;2023-04-15T14:37:52;0.68;;;0.30;;
57800;SDS011;43627;42.728;23.256;2023-04-15T14:40:19;2.13;;;0.50;;
57800;SDS011;43627;42.728;23.256;2023-04-15T14:42:46;1.85;;;0.47;;
57800;SDS011;43627;42.728;23.256;2023-04-15T14:45:12;1.00;;;0.35;;
57800;SDS011;43627;42.728;23.256;2023-04-15T14:47:39;0.35;;;0.25;;
57800;SDS011;43627;42.728;23.256;2023-04-15T14:50:06;1.23;;;0.50;;
57800;SDS011;43627;42.728;23.256;2023-04-15T14:52:33;1.48;;;0.40;;
57800;SDS011;43627;42.728;23.256;2023-04-15T14:55:07;1.60;;;0.52;;
57800;SDS011;43627;42.728;23.256;2023-04-15T14:57:36;0.35;;;0.30;;
57800;SDS011;43627;42.728;23.256;2023-04-15T15:00:03;0.93;;;0.30;;
57800;SDS011;43627;42.728;23.256;2023-04-15T15:02:32;0.57;;;0.20;;